Time;durP1;ratioP1;P1;durP2;ratioP2;P2;SDS_P1;SDS_P2;PMS_P1;PMS_P2;Temp;Humidity;BMP_temperature;BMP_pressure;BME280_temperature;BME280_humidity;BME280_pressure;Samples;Min_cycle;Max_cycle;Signal;HPM_P1;HPM_P2
2022/05/21 00:00:41;;;;;;;1.90;1.80;;;13.30;99.90;;;;;;497263;239;28297;-70
2022/05/21 00:02:41;;;;;;;2.20;2.10;;;13.20;99.90;;;;;;497222;239;28246;-70
2022/05/21 00:04:42;;;;;;;2.13;2.00;;;13.20;99.90;;;;;;497282;239;28642;-69
2022/05/21 00:06:43;;;;;;;2.17;2.03;;;13.00;99.90;;;;;;497289;239;28580;-70
2022/05/21 00:08:44;;;;;;;2.40;2.30;;;13.00;99.90;;;;;;497292;239;28714;-70
2022/05/21 00:10:45;;;;;;;2.13;2.03;;;12.90;99.90;;;;;;497289;239;28757;-70
2022/05/21 00:12:47;;;;;;;2.03;1.90;;;12.80;99.90;;;;;;497272;239;28312;-70
2022/05/21 00:14:48;;;;;;;2.30;2.10;;;12.70;99.90;;;;;;497235;239;28320;-69
2022/05/21 00:16:49;;;;;;;3.60;2.40;;;12.70;99.90;;;;;;497274;239;27941;-70
2022/05/21 00:18:51;;;;;;;3.00;2.17;;;12.60;99.90;;;;;;497269;239;28340;-71
2022/05/21 00:20:52;;;;;;;2.30;2.20;;;12.70;99.90;;;;;;497247;239;28600;-70
2022/05/21 00:22:53;;;;;;;2.43;2.23;;;12.70;99.90;;;;;;497268;239;28874;-70
2022/05/21 00:24:54;;;;;;;2.70;2.50;;;12.70;99.90;;;;;;497238;239;28886;-70
2022/05/21 00:26:56;;;;;;;2.53;2.30;;;12.70;99.90;;;;;;497279;239;29104;-69
2022/05/21 00:28:57;;;;;;;2.37;2.27;;;12.60;99.90;;;;;;497275;238;28327;-70
2022/05/21 00:30:59;;;;;;;2.00;1.90;;;;;;;;;;497238;239;28148;-69
2022/05/21 00:33:00;;;;;;;2.20;2.10;;;12.60;99.90;;;;;;497300;239;26644;-74
2022/05/21 00:35:02;;;;;;;2.30;2.20;;;12.60;99.90;;;;;;497242;239;29295;-70
2022/05/21 00:37:03;;;;;;;2.40;2.30;;;12.60;99.90;;;;;;496965;239;29274;-70
2022/05/21 00:39:04;;;;;;;2.30;2.20;;;12.60;99.90;;;;;;497305;239;28479;-70
2022/05/21 00:41:06;;;;;;;2.10;2.00;;;12.60;99.90;;;;;;497258;239;28503;-70
2022/05/21 00:43:07;;;;;;;2.57;2.37;;;12.60;99.90;;;;;;497301;239;28179;-71
2022/05/21 00:45:08;;;;;;;2.07;1.97;;;12.60;99.90;;;;;;497174;239;28501;-70
2022/05/21 00:47:09;;;;;;;2.40;2.10;;;12.50;99.90;;;;;;497247;239;29266;-70
2022/05/21 00:49:11;;;;;;;2.20;2.10;;;12.50;99.90;;;;;;497234;239;29404;-69
2022/05/21 00:51:12;;;;;;;2.30;2.20;;;12.40;99.90;;;;;;497278;239;28993;-70
2022/05/21 00:53:14;;;;;;;2.50;2.30;;;;;;;;;;497284;239;28163;-70
2022/05/21 00:55:15;;;;;;;2.00;1.90;;;12.40;99.90;;;;;;497282;239;27051;-70
2022/05/21 00:57:17;;;;;;;2.43;2.33;;;12.40;99.90;;;;;;497230;239;29158;-70
2022/05/21 01:00:04;;;;;;;2.50;2.30;;;12.40;99.90;;;;;;497269;239;28962;-70
2022/05/21 01:01:19;;;;;;;2.50;2.30;;;12.40;99.90;;;;;;494332;239;28528;-71
2022/05/21 01:03:22;;;;;;;2.40;2.30;;;;;;;;;;497257;239;28572;-71
2022/05/21 01:05:23;;;;;;;2.00;1.90;;;12.40;99.90;;;;;;497247;239;27030;-69
2022/05/21 01:07:25;;;;;;;2.20;2.10;;;12.40;99.90;;;;;;497275;239;28472;-69
2022/05/21 01:09:25;;;;;;;2.20;2.10;;;12.30;99.90;;;;;;497250;239;28385;-70
2022/05/21 01:11:27;;;;;;;1.90;1.80;;;12.30;99.90;;;;;;497260;239;28604;-70
2022/05/21 01:13:28;;;;;;;2.10;2.00;;;12.30;99.90;;;;;;497258;239;29045;-71
2022/05/21 01:15:29;;;;;;;2.23;1.83;;;12.20;99.90;;;;;;497235;239;28857;-69
2022/05/21 01:17:30;;;;;;;2.23;2.13;;;12.20;99.90;;;;;;497285;239;28237;-70
2022/05/21 01:19:32;;;;;;;2.33;2.13;;;12.20;99.90;;;;;;497289;239;28377;-70
2022/05/21 01:21:33;;;;;;;2.07;1.97;;;12.10;99.90;;;;;;497203;239;28032;-71
2022/05/21 01:23:35;;;;;;;2.00;1.90;;;12.20;99.90;;;;;;497223;239;28458;-69
2022/05/21 01:25:38;;;;;;;1.90;1.80;;;12.10;99.90;;;;;;497226;239;28874;-71
2022/05/21 01:27:37;;;;;;;2.50;2.30;;;12.10;99.90;;;;;;497162;239;29281;-69
2022/05/21 01:29:38;;;;;;;1.87;1.77;;;12.00;99.90;;;;;;497268;239;28572;-70
2022/05/21 01:31:40;;;;;;;2.27;2.07;;;12.00;99.90;;;;;;497255;239;28813;-70
2022/05/21 01:33:41;;;;;;;1.90;1.80;;;11.90;99.90;;;;;;497270;239;28268;-70
2022/05/21 01:35:42;;;;;;;2.20;2.00;;;11.90;99.90;;;;;;497265;239;28391;-70
2022/05/21 01:37:43;;;;;;;1.77;1.67;;;11.80;99.90;;;;;;497235;239;28255;-69
2022/05/21 01:39:45;;;;;;;2.00;1.90;;;11.70;99.90;;;;;;497254;239;28166;-70
2022/05/21 01:41:46;;;;;;;3.97;2.20;;;11.70;99.90;;;;;;497269;239;28297;-70
2022/05/21 01:46:07;;;;;;;2.13;2.03;;;11.70;99.90;;;;;;497217;238;28256;-70
2022/05/21 01:48:08;;;;;;;2.53;2.33;;;11.70;99.90;;;;;;497265;238;28303;-73
2022/05/21 01:50:09;;;;;;;1.90;1.80;;;11.60;99.90;;;;;;497203;239;28637;-69
2022/05/21 01:52:10;;;;;;;3.00;2.00;;;11.70;99.90;;;;;;497191;239;28663;-69
2022/05/21 01:54:12;;;;;;;2.30;2.10;;;11.60;99.90;;;;;;497141;239;28572;-69
2022/05/21 01:56:13;;;;;;;2.10;1.90;;;11.50;99.90;;;;;;497207;239;28843;-69
2022/05/21 01:58:14;;;;;;;2.10;2.00;;;11.50;99.90;;;;;;497252;239;28149;-70
2022/05/21 02:00:15;;;;;;;2.43;2.23;;;11.50;99.90;;;;;;497242;239;28015;-70
2022/05/21 02:02:17;;;;;;;2.27;2.17;;;11.40;99.90;;;;;;497193;239;28074;-70
2022/05/21 02:04:18;;;;;;;2.00;1.90;;;11.40;99.90;;;;;;497230;238;28081;-69
2022/05/21 02:06:19;;;;;;;2.33;2.20;;;11.40;99.90;;;;;;497271;239;28040;-70
2022/05/21 02:08:21;;;;;;;2.00;1.90;;;11.40;99.90;;;;;;497244;239;28085;-69
2022/05/21 02:10:22;;;;;;;1.80;1.70;;;11.50;99.90;;;;;;497232;239;28041;-75
2022/05/21 02:12:24;;;;;;;1.80;1.70;;;11.50;99.90;;;;;;497256;239;28145;-70
2022/05/21 02:14:25;;;;;;;1.70;1.60;;;11.60;99.90;;;;;;497210;239;28143;-75
2022/05/21 02:16:26;;;;;;;1.90;1.80;;;11.50;99.90;;;;;;497262;239;27912;-70
2022/05/21 02:18:27;;;;;;;2.10;2.00;;;11.40;99.90;;;;;;497256;239;28039;-70
2022/05/21 02:20:28;;;;;;;2.13;2.03;;;11.40;99.90;;;;;;497234;239;28056;-70
2022/05/21 02:22:30;;;;;;;1.97;1.87;;;11.40;99.90;;;;;;497159;239;28299;-70
2022/05/21 02:24:31;;;;;;;1.90;1.80;;;11.40;99.90;;;;;;497279;239;28159;-70
2022/05/21 02:26:32;;;;;;;2.20;2.10;;;11.40;99.90;;;;;;497228;239;28191;-70
2022/05/21 02:28:33;;;;;;;2.00;1.90;;;11.40;99.90;;;;;;497235;239;28076;-71
2022/05/21 02:30:35;;;;;;;2.10;2.00;;;11.30;99.90;;;;;;497255;239;28974;-69
2022/05/21 02:32:36;;;;;;;2.13;2.00;;;11.30;99.90;;;;;;497265;239;28635;-70
2022/05/21 02:34:37;;;;;;;2.10;2.00;;;11.20;99.90;;;;;;497263;239;28671;-70
2022/05/21 02:41:18;;;;;;;2.20;2.00;;;11.20;99.90;;;;;;497207;238;27985;-68
2022/05/21 02:43:19;;;;;;;2.50;2.30;;;11.20;99.90;;;;;;497270;239;28243;-71
2022/05/21 02:45:20;;;;;;;2.70;2.50;;;11.10;99.90;;;;;;497250;239;28147;-70
2022/05/21 02:47:22;;;;;;;2.23;2.10;;;11.20;99.90;;;;;;497255;239;28139;-71
2022/05/21 02:49:23;;;;;;;2.40;2.23;;;11.20;99.90;;;;;;497240;239;28010;-70
2022/05/21 02:51:24;;;;;;;2.60;2.40;;;11.10;99.90;;;;;;497269;239;28470;-69
2022/05/21 02:53:25;;;;;;;2.10;2.00;;;11.10;99.90;;;;;;497291;239;28567;-71
2022/05/21 02:55:27;;;;;;;5.20;2.40;;;11.10;99.90;;;;;;497276;239;28717;-70
2022/05/21 02:57:28;;;;;;;2.07;1.97;;;11.10;99.90;;;;;;497270;239;28728;-70
2022/05/21 02:59:29;;;;;;;2.10;2.00;;;11.10;99.90;;;;;;497281;239;28240;-70
2022/05/21 03:01:30;;;;;;;2.27;2.17;;;11.10;99.90;;;;;;497278;238;28081;-70
2022/05/21 03:03:32;;;;;;;2.23;2.13;;;11.10;99.90;;;;;;497296;239;27924;-70
2022/05/21 03:05:33;;;;;;;2.20;2.10;;;11.10;99.90;;;;;;497289;239;28058;-71
2022/05/21 03:07:34;;;;;;;1.97;1.87;;;11.00;99.90;;;;;;497280;239;28025;-71
2022/05/21 03:11:55;;;;;;;2.37;2.17;;;11.00;99.90;;;;;;497302;238;28067;-70
2022/05/21 03:13:56;;;;;;;2.27;2.10;;;11.00;99.90;;;;;;497316;239;27903;-70
2022/05/21 03:15:57;;;;;;;2.20;2.10;;;10.90;99.90;;;;;;497227;239;27922;-70
2022/05/21 03:17:59;;;;;;;2.00;1.90;;;11.00;99.90;;;;;;496525;239;28563;-70
2022/05/21 03:20:00;;;;;;;1.83;1.73;;;11.00;99.90;;;;;;495908;239;28195;-69
2022/05/21 03:22:01;;;;;;;2.20;2.00;;;11.00;99.90;;;;;;496398;239;28284;-70
2022/05/21 03:24:02;;;;;;;2.40;2.20;;;11.00;99.90;;;;;;496870;239;28494;-70
2022/05/21 03:26:04;;;;;;;2.00;1.90;;;11.00;99.90;;;;;;497145;239;28615;-70
2022/05/21 03:28:05;;;;;;;2.07;1.97;;;10.90;99.90;;;;;;497286;239;28583;-69
2022/05/21 03:30:07;;;;;;;2.10;2.00;;;10.80;99.90;;;;;;497298;239;28032;-73
2022/05/21 03:32:07;;;;;;;2.10;2.00;;;10.90;99.90;;;;;;497287;239;27930;-70
2022/05/21 03:34:09;;;;;;;2.00;1.90;;;10.80;99.90;;;;;;497278;239;28117;-70
2022/05/21 03:36:10;;;;;;;1.97;1.87;;;10.90;99.90;;;;;;497284;239;27927;-70
2022/05/21 03:38:11;;;;;;;2.20;1.90;;;10.90;99.90;;;;;;497278;239;27968;-70
2022/05/21 03:40:12;;;;;;;2.30;1.80;;;10.90;99.90;;;;;;497270;239;28046;-72
2022/05/21 03:42:14;;;;;;;1.90;1.80;;;10.90;99.90;;;;;;497243;239;27909;-70
2022/05/21 03:44:15;;;;;;;1.70;1.60;;;10.90;99.90;;;;;;497255;239;28128;-70
2022/05/21 03:46:16;;;;;;;2.10;2.00;;;10.90;99.90;;;;;;497272;239;28414;-70
2022/05/21 03:48:17;;;;;;;1.90;1.80;;;10.90;99.90;;;;;;497281;239;28509;-70
2022/05/21 03:50:19;;;;;;;1.90;1.80;;;10.90;99.90;;;;;;497281;239;28680;-72
2022/05/21 03:52:20;;;;;;;2.00;1.90;;;11.00;99.90;;;;;;497271;239;28537;-70
2022/05/21 03:54:21;;;;;;;2.13;2.03;;;10.90;99.90;;;;;;497235;239;28460;-70
2022/05/21 03:56:22;;;;;;;2.00;1.90;;;10.90;99.90;;;;;;497270;239;28221;-71
2022/05/21 03:58:24;;;;;;;1.80;1.70;;;10.90;99.90;;;;;;497279;239;28044;-70
2022/05/21 04:00:25;;;;;;;1.83;1.73;;;10.90;99.90;;;;;;497260;239;27961;-72
2022/05/21 04:02:26;;;;;;;2.27;1.90;;;11.00;99.90;;;;;;497272;239;28022;-70
2022/05/21 04:04:27;;;;;;;2.90;2.10;;;11.00;99.90;;;;;;497238;239;28165;-70
2022/05/21 04:06:29;;;;;;;2.07;1.97;;;11.00;99.90;;;;;;497293;239;27995;-70
2022/05/21 04:08:30;;;;;;;2.10;2.00;;;11.00;99.90;;;;;;497260;239;28287;-70
2022/05/21 04:10:31;;;;;;;2.10;1.90;;;10.90;99.90;;;;;;497277;239;28077;-72
2022/05/21 04:12:33;;;;;;;2.33;2.23;;;10.90;99.90;;;;;;497233;239;27892;-70
2022/05/21 04:14:34;;;;;;;2.63;2.43;;;11.00;99.90;;;;;;497250;239;28421;-70
2022/05/21 04:16:35;;;;;;;2.30;2.10;;;11.00;99.90;;;;;;497247;239;28818;-70
2022/05/21 04:18:36;;;;;;;2.93;2.63;;;10.90;99.90;;;;;;497207;239;28397;-70
2022/05/21 04:20:38;;;;;;;2.90;2.60;;;10.90;99.90;;;;;;497280;239;28114;-70
2022/05/21 04:22:39;;;;;;;3.20;2.37;;;10.90;99.90;;;;;;497231;239;27976;-70
2022/05/21 04:24:40;;;;;;;1.70;1.60;;;11.00;99.90;;;;;;497267;239;28166;-70
2022/05/21 04:26:42;;;;;;;2.30;2.20;;;11.00;99.90;;;;;;497266;239;28054;-71
2022/05/21 04:28:43;;;;;;;1.90;1.80;;;11.00;99.90;;;;;;497267;239;28036;-70
2022/05/21 04:30:44;;;;;;;2.30;2.20;;;11.00;99.90;;;;;;497266;239;28285;-71
2022/05/21 04:32:45;;;;;;;2.10;1.90;;;11.00;99.90;;;;;;497250;239;28457;-70
2022/05/21 04:34:46;;;;;;;2.27;2.17;;;11.00;99.90;;;;;;497250;239;28529;-70
2022/05/21 04:36:48;;;;;;;2.20;2.10;;;10.90;99.90;;;;;;497271;239;28014;-69
2022/05/21 04:38:49;;;;;;;2.40;2.13;;;10.90;99.90;;;;;;497264;239;28241;-70
2022/05/21 04:40:50;;;;;;;2.23;2.10;;;10.90;99.90;;;;;;497268;239;28257;-71
2022/05/21 04:42:51;;;;;;;2.57;2.37;;;11.00;99.90;;;;;;497077;239;28040;-70
2022/05/21 04:44:53;;;;;;;4.10;2.67;;;11.00;99.90;;;;;;496842;239;28964;-71
2022/05/21 04:46:54;;;;;;;2.30;2.20;;;11.10;99.90;;;;;;497284;239;28620;-74
2022/05/21 04:48:55;;;;;;;2.50;2.30;;;11.00;99.90;;;;;;497287;239;28471;-70
2022/05/21 04:50:56;;;;;;;2.33;2.13;;;11.10;99.90;;;;;;497305;239;27850;-70
2022/05/21 04:52:58;;;;;;;2.47;2.27;;;11.10;99.90;;;;;;497240;239;28086;-70
2022/05/21 04:54:59;;;;;;;2.70;2.50;;;11.10;99.90;;;;;;497290;239;28190;-70
2022/05/21 04:57:00;;;;;;;3.00;2.27;;;11.10;99.90;;;;;;497257;239;28217;-70
2022/05/21 04:59:01;;;;;;;2.53;2.23;;;11.30;99.90;;;;;;497261;239;28069;-70
2022/05/21 05:01:03;;;;;;;3.07;2.77;;;11.40;99.90;;;;;;497259;239;28169;-71
2022/05/21 05:03:04;;;;;;;3.50;2.87;;;11.40;99.90;;;;;;497160;238;28046;-70
2022/05/21 05:05:05;;;;;;;2.60;2.40;;;11.50;99.90;;;;;;497246;239;28375;-70
2022/05/21 05:07:06;;;;;;;3.40;3.20;;;11.50;99.90;;;;;;497264;239;28586;-70
2022/05/21 05:09:08;;;;;;;3.17;2.80;;;11.60;99.90;;;;;;497258;239;28706;-70
2022/05/21 05:11:09;;;;;;;3.00;2.80;;;11.70;99.90;;;;;;497287;239;28904;-71
2022/05/21 05:13:10;;;;;;;4.20;3.40;;;11.80;99.90;;;;;;497269;239;28778;-70
2022/05/21 05:15:11;;;;;;;3.70;3.40;;;11.80;99.90;;;;;;497256;239;28732;-70
2022/05/21 05:17:13;;;;;;;3.93;3.57;;;11.80;99.90;;;;;;497280;239;28327;-71
2022/05/21 05:19:14;;;;;;;3.70;3.50;;;11.90;99.90;;;;;;497271;239;28009;-70
2022/05/21 05:21:15;;;;;;;4.03;3.73;;;12.00;99.90;;;;;;497277;239;28191;-70
2022/05/21 05:23:17;;;;;;;4.50;4.10;;;12.00;99.90;;;;;;497165;239;28409;-70
2022/05/21 05:25:18;;;;;;;4.83;4.43;;;12.00;99.90;;;;;;497238;239;28022;-70
2022/05/21 05:27:19;;;;;;;3.90;3.60;;;12.20;99.90;;;;;;497286;239;28497;-75
2022/05/21 05:29:20;;;;;;;5.60;5.10;;;12.10;99.90;;;;;;497266;239;28802;-70
2022/05/21 05:31:22;;;;;;;4.70;4.30;;;12.10;99.90;;;;;;497246;239;28497;-70
2022/05/21 05:33:24;;;;;;;4.40;4.00;;;12.10;99.90;;;;;;497234;239;28931;-70
2022/05/21 05:35:25;;;;;;;5.83;5.00;;;;;;;;;;497181;239;28757;-72
2022/05/21 05:37:28;;;;;;;6.73;5.63;;;;;;;;;;497262;239;27033;-71
2022/05/21 05:39:29;;;;;;;5.30;4.90;;;12.30;99.90;;;;;;497276;239;27359;-70
2022/05/21 05:41:30;;;;;;;6.47;5.30;;;12.40;99.90;;;;;;497233;239;28825;-71
2022/05/21 05:43:33;;;;;;;5.70;5.23;;;12.60;99.90;;;;;;497269;239;28160;-73
2022/05/21 05:45:34;;;;;;;5.73;5.17;;;12.70;99.90;;;;;;497266;239;28174;-70
2022/05/21 05:47:35;;;;;;;5.73;5.23;;;12.60;99.90;;;;;;497227;239;28353;-70
2022/05/21 05:49:36;;;;;;;6.00;5.50;;;12.70;99.90;;;;;;497259;239;28650;-71
2022/05/21 05:51:38;;;;;;;7.33;5.90;;;12.50;99.90;;;;;;497259;239;28871;-70
2022/05/21 05:53:39;;;;;;;5.70;4.90;;;12.50;99.90;;;;;;497270;239;28804;-70
2022/05/21 05:55:41;;;;;;;6.30;5.70;;;12.60;99.90;;;;;;497209;239;28765;-71
2022/05/21 05:57:41;;;;;;;5.83;5.27;;;12.60;99.90;;;;;;497230;239;28198;-70
2022/05/21 05:59:49;;;;;;;6.10;5.53;;;12.60;99.90;;;;;;497244;239;28256;-71
2022/05/21 06:02:57;;;;;;;7.03;5.80;;;12.70;99.90;;;;;;497229;239;28195;-73
2022/05/21 06:03:51;;;;;;;7.13;6.00;;;12.70;99.90;;;;;;495777;239;28648;-70
2022/05/21 06:05:54;;;;;;;6.67;6.07;;;;;;;;;;497223;239;28662;-70
2022/05/21 06:07:55;;;;;;;6.30;5.80;;;12.90;99.90;;;;;;497246;239;26704;-70
2022/05/21 06:09:59;;;;;;;8.00;6.40;;;13.00;99.90;;;;;;497277;239;28224;-73
2022/05/21 06:11:58;;;;;;;7.43;6.73;;;13.00;99.90;;;;;;497066;239;28226;-70
2022/05/21 06:13:59;;;;;;;8.50;6.57;;;13.00;99.90;;;;;;497247;239;28939;-70
2022/05/21 06:16:00;;;;;;;7.70;7.00;;;12.90;99.90;;;;;;497245;239;28994;-70
2022/05/21 06:18:03;;;;;;;8.50;6.77;;;;;;;;;;497255;239;28795;-71
2022/05/21 06:20:04;;;;;;;7.07;6.00;;;12.80;99.90;;;;;;497275;239;26471;-70
2022/05/21 06:22:05;;;;;;;6.60;6.10;;;12.70;99.90;;;;;;497252;239;28170;-72
2022/05/21 06:24:06;;;;;;;6.83;6.23;;;12.70;99.90;;;;;;497223;239;28281;-70
2022/05/21 06:26:09;;;;;;;6.53;5.93;;;12.70;99.90;;;;;;497244;239;28166;-71
2022/05/21 06:28:09;;;;;;;6.57;5.93;;;12.80;99.90;;;;;;497225;239;28760;-73
2022/05/21 06:30:10;;;;;;;6.57;5.97;;;12.90;99.90;;;;;;497261;239;28726;-70
2022/05/21 06:32:11;;;;;;;7.00;6.30;;;12.80;99.90;;;;;;497258;239;28751;-71
2022/05/21 06:34:12;;;;;;;6.70;6.00;;;12.90;99.90;;;;;;497249;239;28230;-72
2022/05/21 06:36:15;;;;;;;7.20;6.60;;;;;;;;;;497263;239;28253;-72
2022/05/21 06:38:16;;;;;;;7.47;6.57;;;12.90;99.90;;;;;;497268;239;26568;-71
2022/05/21 06:40:17;;;;;;;7.77;6.30;;;12.80;99.90;;;;;;497220;239;28683;-70
2022/05/21 06:42:19;;;;;;;7.60;6.90;;;12.90;99.90;;;;;;497235;239;29445;-70
2022/05/21 06:44:20;;;;;;;6.80;6.17;;;12.90;99.90;;;;;;497275;239;28828;-70
2022/05/21 06:46:21;;;;;;;7.67;7.00;;;13.10;99.90;;;;;;497276;238;28805;-72
2022/05/21 06:48:22;;;;;;;11.13;7.33;;;13.10;99.90;;;;;;497272;239;28233;-71
2022/05/21 06:50:24;;;;;;;9.03;8.13;;;13.30;99.90;;;;;;497231;239;28353;-70
2022/05/21 06:52:25;;;;;;;8.13;7.27;;;13.00;99.90;;;;;;497222;239;28183;-70
2022/05/21 06:54:27;;;;;;;8.50;7.60;;;12.80;99.90;;;;;;497267;239;28262;-71
2022/05/21 06:56:27;;;;;;;6.30;5.80;;;12.90;99.90;;;;;;497260;239;28427;-71
2022/05/21 06:58:29;;;;;;;6.90;6.30;;;13.00;99.90;;;;;;497284;239;28157;-70
2022/05/21 07:00:30;;;;;;;6.03;5.53;;;13.30;99.90;;;;;;497278;239;28398;-70
2022/05/21 07:02:31;;;;;;;6.30;5.40;;;13.60;99.90;;;;;;497274;239;28690;-70
2022/05/21 07:09:11;;;;;;;7.50;4.70;;;13.80;99.90;;;;;;497230;238;29341;-70
2022/05/21 07:11:13;;;;;;;5.30;4.70;;;13.80;99.90;;;;;;497265;239;28886;-70
2022/05/21 07:13:14;;;;;;;3.93;3.63;;;13.80;99.90;;;;;;497258;239;28725;-70
2022/05/21 07:15:15;;;;;;;6.83;4.70;;;13.80;99.90;;;;;;497206;239;28777;-71
2022/05/21 07:17:16;;;;;;;3.67;3.37;;;14.10;99.90;;;;;;497245;239;28898;-71
2022/05/21 07:19:17;;;;;;;6.60;3.30;;;14.30;99.90;;;;;;497262;239;28754;-70
2022/05/21 07:21:19;;;;;;;4.53;2.87;;;14.30;99.90;;;;;;497290;239;28838;-70
2022/05/21 07:23:20;;;;;;;2.97;2.77;;;14.20;99.90;;;;;;497278;239;28801;-74
2022/05/21 07:25:21;;;;;;;3.20;2.50;;;14.20;99.90;;;;;;497263;239;28848;-71
2022/05/21 07:27:23;;;;;;;2.53;2.20;;;14.60;99.90;;;;;;497236;239;28917;-70
2022/05/21 07:29:24;;;;;;;3.50;2.47;;;14.70;99.90;;;;;;497246;239;29247;-71
2022/05/21 07:31:25;;;;;;;3.23;2.53;;;14.60;99.90;;;;;;497275;239;29315;-70
2022/05/21 07:33:26;;;;;;;2.43;1.83;;;14.50;99.90;;;;;;497284;239;29350;-75
2022/05/21 07:35:27;;;;;;;4.10;2.30;;;14.50;99.90;;;;;;497269;239;29287;-70
2022/05/21 07:37:32;;;;;;;3.40;2.10;;;14.50;99.90;;;;;;497286;239;29263;-72
2022/05/21 07:39:33;;;;;;;4.83;2.53;;;14.50;99.90;;;;;;497323;239;28749;-71
2022/05/21 07:41:34;;;;;;;2.87;2.43;;;14.30;99.90;;;;;;497308;239;29326;-73
2022/05/21 07:43:36;;;;;;;2.67;2.13;;;14.40;99.90;;;;;;497278;239;29233;-70
2022/05/21 07:45:39;;;;;;;2.07;1.80;;;14.50;99.90;;;;;;497271;239;29367;-71
2022/05/21 07:47:38;;;;;;;2.20;2.00;;;14.60;99.90;;;;;;497169;239;29214;-71
2022/05/21 07:49:39;;;;;;;2.50;1.90;;;14.60;99.90;;;;;;497323;239;28682;-70
2022/05/21 07:51:41;;;;;;;2.03;1.70;;;14.60;99.90;;;;;;497336;239;28826;-72
2022/05/21 07:53:42;;;;;;;2.10;1.70;;;14.60;99.90;;;;;;497295;239;28787;-71
2022/05/21 07:55:43;;;;;;;3.00;1.70;;;14.40;99.90;;;;;;497309;239;28883;-70
2022/05/21 07:57:44;;;;;;;2.97;1.90;;;14.30;99.90;;;;;;497291;239;28786;-70
2022/05/21 07:59:46;;;;;;;1.80;1.70;;;14.40;99.90;;;;;;497282;239;28792;-70
2022/05/21 08:01:47;;;;;;;4.13;2.07;;;14.50;99.90;;;;;;497316;239;28902;-70
2022/05/21 08:03:48;;;;;;;3.40;1.93;;;14.40;99.90;;;;;;497312;239;29158;-70
2022/05/21 08:05:49;;;;;;;2.10;1.80;;;14.70;99.90;;;;;;497301;239;29301;-71
2022/05/21 08:07:52;;;;;;;2.53;1.70;;;14.90;99.90;;;;;;497315;239;29308;-71
2022/05/21 08:09:52;;;;;;;7.50;1.97;;;15.00;99.90;;;;;;497188;239;29364;-71
2022/05/21 08:11:54;;;;;;;2.27;1.80;;;15.10;99.90;;;;;;497337;239;29357;-70
2022/05/21 08:13:54;;;;;;;2.63;1.83;;;15.20;99.90;;;;;;497268;239;28678;-71
2022/05/21 08:15:56;;;;;;;2.40;1.90;;;15.00;99.90;;;;;;497273;239;28866;-72
2022/05/21 08:17:57;;;;;;;3.33;2.17;;;14.80;99.90;;;;;;497314;239;28778;-71
2022/05/21 08:19:58;;;;;;;2.33;1.70;;;14.80;99.90;;;;;;497292;239;28866;-71
2022/05/21 08:26:56;;;;;;;6.43;2.03;;;14.90;99.90;;;;;;497322;239;29656;-71
2022/05/21 08:28:40;;;;;;;4.47;1.90;;;15.30;99.90;;;;;;497324;238;28867;-70
2022/05/21 08:30:41;;;;;;;6.43;2.43;;;15.40;99.90;;;;;;497325;239;28755;-70
2022/05/21 08:32:43;;;;;;;6.00;1.80;;;15.30;99.90;;;;;;497284;239;28889;-70
2022/05/21 08:34:44;;;;;;;2.60;1.70;;;15.20;99.90;;;;;;497340;239;29611;-73
2022/05/21 08:36:45;;;;;;;2.10;1.70;;;15.20;99.90;;;;;;497369;239;29260;-70
2022/05/21 08:38:46;;;;;;;3.70;1.70;;;15.30;99.90;;;;;;497345;239;29374;-72
2022/05/21 08:40:49;;;;;;;3.00;1.60;;;15.30;99.90;;;;;;497308;239;28866;-70
2022/05/21 08:42:49;;;;;;;2.47;1.50;;;15.50;99.90;;;;;;497253;239;28913;-70
2022/05/21 08:44:50;;;;;;;4.47;1.70;;;15.50;99.90;;;;;;497307;239;28784;-71
2022/05/21 08:46:51;;;;;;;2.80;1.70;;;15.50;99.90;;;;;;497243;239;28776;-71
2022/05/21 08:48:53;;;;;;;2.43;1.83;;;15.60;99.90;;;;;;497344;239;29240;-70
2022/05/21 08:51:00;;;;;;;2.30;1.80;;;15.60;99.90;;;;;;497285;239;29251;-71
2022/05/21 08:53:01;;;;;;;2.20;1.70;;;15.60;99.90;;;;;;497306;239;29256;-71
2022/05/21 08:55:02;;;;;;;4.57;2.03;;;15.40;99.90;;;;;;497317;239;29369;-71
2022/05/21 08:57:03;;;;;;;2.33;1.47;;;15.60;99.90;;;;;;497331;239;29199;-70
2022/05/21 08:59:05;;;;;;;2.23;1.70;;;15.80;99.90;;;;;;497280;239;28820;-70
2022/05/21 09:01:06;;;;;;;2.10;1.40;;;15.50;99.90;;;;;;497222;239;28758;-71
2022/05/21 09:03:07;;;;;;;2.80;1.50;;;15.50;99.90;;;;;;497151;239;28901;-72
2022/05/21 09:05:09;;;;;;;3.10;1.60;;;15.60;99.90;;;;;;497287;239;28842;-71
2022/05/21 09:07:10;;;;;;;2.27;1.80;;;15.80;99.90;;;;;;497333;239;28834;-71
2022/05/21 09:09:11;;;;;;;1.53;1.43;;;15.90;99.90;;;;;;497309;239;28798;-71
2022/05/21 09:11:12;;;;;;;2.07;1.50;;;16.10;99.90;;;;;;497222;239;28802;-71
2022/05/21 09:13:14;;;;;;;2.53;1.70;;;16.20;99.90;;;;;;497302;239;28908;-71
2022/05/21 09:16:54;;;;;;;3.43;1.70;;;16.30;99.90;;;;;;497315;239;28837;-71
2022/05/21 09:17:16;;;;;;;2.23;1.40;;;16.40;99.90;;;;;;495821;239;29291;-71
2022/05/21 09:19:17;;;;;;;1.63;1.53;;;16.30;99.90;;;;;;497315;239;29208;-74
2022/05/21 09:21:19;;;;;;;1.70;1.60;;;16.40;99.90;;;;;;497229;239;29197;-71
2022/05/21 09:23:20;;;;;;;1.70;1.60;;;16.50;99.90;;;;;;497289;238;28873;-71
2022/05/21 09:25:22;;;;;;;1.97;1.73;;;16.40;99.90;;;;;;497216;239;28900;-71
2022/05/21 09:27:22;;;;;;;4.17;2.00;;;16.10;99.90;;;;;;497215;239;28795;-71
2022/05/21 09:29:25;;;;;;;4.23;2.10;;;16.20;99.90;;;;;;497285;239;28772;-72
2022/05/21 09:31:25;;;;;;;1.93;1.80;;;16.40;99.90;;;;;;497174;239;28773;-71
2022/05/21 09:33:26;;;;;;;1.73;1.63;;;16.70;99.90;;;;;;497270;239;28810;-71
2022/05/21 09:35:27;;;;;;;2.00;1.87;;;17.10;99.90;;;;;;497293;239;28854;-71
2022/05/21 09:37:29;;;;;;;2.37;2.17;;;17.00;99.90;;;;;;497163;239;28849;-71
2022/05/21 09:39:30;;;;;;;2.50;1.93;;;16.60;99.90;;;;;;497298;239;28798;-73
2022/05/21 09:41:36;;;;;;;2.33;2.13;;;16.50;99.90;;;;;;497276;239;29194;-71
2022/05/21 09:45:37;;;;;;;3.20;2.30;;;16.40;99.90;;;;;;491572;239;28849;-71
2022/05/21 09:47:39;;;;;;;2.80;2.00;;;16.10;99.90;;;;;;497285;239;28830;-69
2022/05/21 09:49:39;;;;;;;2.40;2.20;;;16.10;99.90;;;;;;497229;239;28833;-71
2022/05/21 09:51:42;;;;;;;2.20;2.00;;;16.20;99.90;;;;;;497277;239;28799;-73
2022/05/21 09:53:44;;;;;;;5.10;2.30;;;16.10;99.90;;;;;;497273;239;28763;-71
2022/05/21 09:55:45;;;;;;;2.03;1.93;;;16.00;99.90;;;;;;497276;239;28795;-71
2022/05/21 09:57:46;;;;;;;2.77;2.00;;;16.30;99.90;;;;;;497271;239;30051;-71
2022/05/21 09:59:47;;;;;;;2.67;2.03;;;16.70;99.90;;;;;;497297;239;29299;-72
2022/05/21 10:01:49;;;;;;;2.60;2.27;;;16.90;99.90;;;;;;497309;239;29269;-74
2022/05/21 10:03:50;;;;;;;2.43;1.97;;;16.90;99.90;;;;;;497283;239;28897;-71
2022/05/21 10:05:51;;;;;;;3.17;1.77;;;16.80;99.90;;;;;;497296;239;28802;-72
2022/05/21 10:12:31;;;;;;;1.70;1.60;;;16.90;99.90;;;;;;497282;238;29333;-71
2022/05/21 10:14:33;;;;;;;2.53;1.90;;;16.70;99.90;;;;;;497242;239;29317;-72
2022/05/21 10:16:34;;;;;;;3.23;2.20;;;16.80;99.90;;;;;;497259;239;29302;-71
2022/05/21 10:18:35;;;;;;;1.97;1.87;;;17.00;99.90;;;;;;497289;239;28804;-75
2022/05/21 10:20:36;;;;;;;2.83;1.97;;;17.30;99.90;;;;;;497285;239;28842;-71
2022/05/21 10:22:38;;;;;;;3.90;2.00;;;17.40;99.90;;;;;;497271;239;28879;-72
2022/05/21 10:24:39;;;;;;;4.93;1.70;;;17.40;99.90;;;;;;497219;239;28864;-71
2022/05/21 10:26:40;;;;;;;1.87;1.77;;;17.20;99.90;;;;;;497110;239;28789;-71
2022/05/21 10:28:41;;;;;;;2.17;1.87;;;17.20;99.90;;;;;;496763;239;28896;-74
2022/05/21 10:30:43;;;;;;;3.60;2.27;;;17.20;99.90;;;;;;495864;239;29268;-71
2022/05/21 10:32:44;;;;;;;2.43;1.80;;;17.30;99.90;;;;;;496762;239;28803;-71
2022/05/21 10:34:45;;;;;;;3.10;1.90;;;17.20;99.90;;;;;;497258;239;28777;-71
2022/05/21 10:36:46;;;;;;;2.70;1.70;;;17.50;99.90;;;;;;497272;239;29216;-72
2022/05/21 10:38:48;;;;;;;3.20;1.80;;;17.60;99.90;;;;;;497282;239;29280;-72
2022/05/21 10:40:50;;;;;;;1.60;1.50;;;17.80;99.90;;;;;;497280;239;29248;-71
2022/05/21 10:42:50;;;;;;;3.80;2.00;;;17.40;99.90;;;;;;497199;239;28910;-72
2022/05/21 10:44:51;;;;;;;1.97;1.87;;;17.50;99.90;;;;;;497238;239;28787;-71
2022/05/21 10:46:53;;;;;;;2.23;1.60;;;17.70;99.90;;;;;;497253;239;28782;-72
2022/05/21 10:48:55;;;;;;;2.03;1.73;;;18.00;99.90;;;;;;497256;239;28810;-76
2022/05/21 10:50:55;;;;;;;1.63;1.53;;;18.00;99.90;;;;;;497154;239;28854;-71
2022/05/21 10:52:56;;;;;;;3.40;1.80;;;17.90;99.90;;;;;;497233;239;28808;-72
2022/05/21 10:54:58;;;;;;;1.73;1.63;;;17.60;99.90;;;;;;497244;239;28886;-71
2022/05/21 10:56:59;;;;;;;2.03;1.83;;;17.50;99.90;;;;;;497224;239;28846;-71
2022/05/21 10:59:00;;;;;;;2.73;1.70;;;17.40;99.90;;;;;;497280;239;28796;-72